createdAt,value
2024-05-09T00:00:53.191Z,59.51
2024-05-09T00:02:34.728Z,59.00
2024-05-09T00:04:16.224Z,59.16
2024-05-09T00:05:57.754Z,59.12
2024-05-09T00:07:39.272Z,59.22
2024-05-09T00:09:20.824Z,59.56
2024-05-09T00:11:02.369Z,60.10
2024-05-09T00:12:43.880Z,60.33
2024-05-09T00:14:25.453Z,60.05
2024-05-09T00:16:06.987Z,59.32
2024-05-09T00:17:48.580Z,60.73
2024-05-09T00:19:30.309Z,61.09
2024-05-09T00:21:11.883Z,61.49
2024-05-09T00:22:53.423Z,62.07
2024-05-09T00:24:35.006Z,63.06
2024-05-09T00:26:16.490Z,63.65
2024-05-09T00:27:57.956Z,63.92
2024-05-09T00:29:39.433Z,64.57
2024-05-09T00:31:20.919Z,65.88
2024-05-09T00:33:02.598Z,65.96
2024-05-09T00:34:44.225Z,65.87
2024-05-09T00:36:25.724Z,66.21
2024-05-09T00:38:07.324Z,66.87
2024-05-09T00:39:48.901Z,68.02
2024-05-09T00:41:30.423Z,68.65
2024-05-09T00:43:12.948Z,68.67
2024-05-09T00:44:55.574Z,67.18
2024-05-09T00:46:37.026Z,66.45
2024-05-09T00:48:20.930Z,65.10
2024-05-09T00:50:04.135Z,65.65
2024-05-09T00:51:45.780Z,66.47
2024-05-09T00:53:27.315Z,65.98
2024-05-09T00:55:08.819Z,66.73
2024-05-09T00:56:50.270Z,65.93
2024-05-09T00:58:31.738Z,65.41
2024-05-09T01:00:22.586Z,64.63
2024-05-09T01:02:12.256Z,65.70
2024-05-09T01:03:54.047Z,66.71
2024-05-09T01:05:35.824Z,67.59
2024-05-09T01:07:17.352Z,68.47
2024-05-09T01:08:58.825Z,68.10
2024-05-09T01:10:43.903Z,66.99
2024-05-09T01:12:26.858Z,66.21
2024-05-09T01:14:08.475Z,65.15
2024-05-09T01:15:50.039Z,65.07
2024-05-09T01:17:31.772Z,64.71
2024-05-09T01:19:13.489Z,63.28
2024-05-09T01:20:55.063Z,61.95
2024-05-09T01:22:36.570Z,61.21
2024-05-09T01:24:18.032Z,60.79
2024-05-09T01:25:59.527Z,59.40
2024-05-09T01:27:41.037Z,60.25
2024-05-09T01:29:22.648Z,59.87
2024-05-09T01:31:04.149Z,59.51
2024-05-09T01:32:45.720Z,59.13
2024-05-09T01:34:27.231Z,59.88
2024-05-09T01:36:08.712Z,60.09
2024-05-09T01:37:50.218Z,60.01
2024-05-09T01:39:31.687Z,59.64
2024-05-09T01:41:13.156Z,59.09
2024-05-09T01:42:54.642Z,59.98
2024-05-09T01:44:36.111Z,59.24
2024-05-09T01:46:17.723Z,59.89
2024-05-09T01:47:59.627Z,60.52
2024-05-09T01:49:41.435Z,60.72
2024-05-09T01:51:22.949Z,60.44
2024-05-09T01:53:04.523Z,60.28
2024-05-09T01:54:46.013Z,60.58
2024-05-09T01:56:27.594Z,60.35
2024-05-09T01:58:09.164Z,61.01
2024-05-09T01:59:50.624Z,61.48
2024-05-09T02:01:55.347Z,61.78
2024-05-09T02:03:33.667Z,62.27
2024-05-09T02:05:15.305Z,61.49
2024-05-09T02:06:56.800Z,61.34
2024-05-09T02:08:38.361Z,61.50
2024-05-09T02:10:26.180Z,61.95
2024-05-09T02:12:13.409Z,62.04
2024-05-09T02:13:55.001Z,61.56
2024-05-09T02:15:36.495Z,60.96
2024-05-09T02:17:18.061Z,61.34
2024-05-09T02:18:59.654Z,60.03
2024-05-09T02:20:42.073Z,61.83
2024-05-09T02:22:24.168Z,60.99
2024-05-09T02:24:05.639Z,60.72
2024-05-09T02:25:47.143Z,61.01
2024-05-09T02:27:28.607Z,60.91
2024-05-09T02:29:10.112Z,60.72
2024-05-09T02:30:51.732Z,60.54
2024-05-09T02:32:33.336Z,60.71
2024-05-09T02:34:14.901Z,59.46
2024-05-09T02:35:56.431Z,58.75
2024-05-09T02:37:37.929Z,59.53
2024-05-09T02:39:19.399Z,59.25
2024-05-09T02:41:00.895Z,60.11
2024-05-09T02:42:42.408Z,60.00
2024-05-09T02:44:23.930Z,60.33
2024-05-09T02:46:05.481Z,60.65
2024-05-09T02:47:47.103Z,60.97
2024-05-09T02:49:28.843Z,61.61
2024-05-09T02:51:10.619Z,61.49
2024-05-09T02:52:52.163Z,62.21
2024-05-09T02:54:33.627Z,61.67
2024-05-09T02:56:15.145Z,62.13
2024-05-09T02:57:56.714Z,61.69
2024-05-09T02:59:38.246Z,61.68
2024-05-09T03:01:19.868Z,61.90
2024-05-09T03:03:01.698Z,62.42
2024-05-09T03:04:43.408Z,62.43
2024-05-09T03:06:24.964Z,63.10
2024-05-09T03:08:06.491Z,64.36
2024-05-09T03:09:47.994Z,65.90
2024-05-09T03:11:29.549Z,66.91
2024-05-09T03:13:11.115Z,66.11
2024-05-09T03:14:52.570Z,65.29
2024-05-09T03:16:34.034Z,64.00
2024-05-09T03:18:15.791Z,63.26
2024-05-09T03:19:57.415Z,62.37
2024-05-09T03:21:38.934Z,63.22
2024-05-09T03:23:20.484Z,62.51
2024-05-09T03:25:01.982Z,61.07
2024-05-09T03:26:43.447Z,61.47
2024-05-09T03:28:24.996Z,61.94
2024-05-09T03:30:07.649Z,62.32
2024-05-09T03:31:49.349Z,61.81
2024-05-09T03:33:31.215Z,61.27
2024-05-09T03:35:13.013Z,60.54
2024-05-09T03:36:54.475Z,60.38
2024-05-09T03:38:36.061Z,60.02
2024-05-09T03:40:23.426Z,59.84
2024-05-09T03:42:07.624Z,60.31
2024-05-09T03:43:49.149Z,60.20
2024-05-09T03:45:30.668Z,62.53
2024-05-09T03:47:12.273Z,63.19
2024-05-09T03:48:53.969Z,62.04
2024-05-09T03:50:36.684Z,61.62
2024-05-09T03:52:18.886Z,60.20
2024-05-09T03:54:00.325Z,59.50
2024-05-09T03:55:41.822Z,59.06
2024-05-09T03:57:23.268Z,59.24
2024-05-09T03:59:04.772Z,58.86
2024-05-09T04:00:46.353Z,58.78
2024-05-09T04:02:28.054Z,58.74
2024-05-09T04:04:09.647Z,58.61
2024-05-09T04:05:51.197Z,58.67
2024-05-09T04:07:32.819Z,60.95
2024-05-09T04:09:14.273Z,60.18
2024-05-09T04:10:55.773Z,59.83
2024-05-09T04:12:37.358Z,61.46
2024-05-09T04:14:18.825Z,62.05
2024-05-09T04:16:00.410Z,62.20
2024-05-09T04:17:42.029Z,62.55
2024-05-09T04:19:23.693Z,62.69
2024-05-09T04:21:05.476Z,62.81
2024-05-09T04:22:47.126Z,62.72
2024-05-09T04:24:28.638Z,62.69
2024-05-09T04:26:10.122Z,61.51
2024-05-09T04:27:51.590Z,61.29
2024-05-09T04:29:33.099Z,61.34
2024-05-09T04:31:14.626Z,60.94
2024-05-09T04:32:56.241Z,63.82
2024-05-09T04:34:37.802Z,65.72
2024-05-09T04:36:19.286Z,65.88
2024-05-09T04:38:00.894Z,68.30
2024-05-09T04:39:42.424Z,67.82
2024-05-09T04:41:23.907Z,67.38
2024-05-09T04:43:05.618Z,67.40
2024-05-09T04:44:47.297Z,67.36
2024-05-09T04:46:28.782Z,66.95
2024-05-09T04:48:10.514Z,65.42
2024-05-09T04:49:52.087Z,64.51
2024-05-09T04:51:33.548Z,65.39
2024-05-09T04:53:15.076Z,65.46
2024-05-09T04:54:58.510Z,64.35
2024-05-09T04:56:40.462Z,63.50
2024-05-09T04:58:21.947Z,62.49
2024-05-09T05:00:07.227Z,62.35
2024-05-09T05:01:50.909Z,63.08
2024-05-09T05:03:32.790Z,62.38
2024-05-09T05:05:14.529Z,62.26
2024-05-09T05:06:57.785Z,62.21
2024-05-09T05:08:40.540Z,62.18
2024-05-09T05:10:29.499Z,61.50
2024-05-09T05:12:16.890Z,61.14
2024-05-09T05:13:58.487Z,62.66
2024-05-09T05:15:39.965Z,63.84
2024-05-09T05:17:21.545Z,65.61
2024-05-09T05:19:03.294Z,66.35
2024-05-09T05:20:45.240Z,66.52
2024-05-09T05:22:26.784Z,67.11
2024-05-09T05:24:08.296Z,66.70
2024-05-09T05:25:50.071Z,65.45
2024-05-09T05:27:31.704Z,65.49
2024-05-09T05:29:13.338Z,66.71
2024-05-09T05:30:54.880Z,67.13
2024-05-09T05:32:36.371Z,67.44
2024-05-09T05:34:17.925Z,67.38
2024-05-09T05:35:59.408Z,65.66
2024-05-09T05:37:40.892Z,64.84
2024-05-09T05:39:22.334Z,64.55
2024-05-09T05:41:03.843Z,64.55
2024-05-09T05:42:45.353Z,64.11
2024-05-09T05:44:26.920Z,65.20
2024-05-09T05:46:08.478Z,66.23
2024-05-09T05:47:50.079Z,65.63
2024-05-09T05:49:31.874Z,63.91
2024-05-09T05:51:13.665Z,63.46
2024-05-09T05:52:55.330Z,64.04
2024-05-09T05:54:36.841Z,63.17
2024-05-09T05:56:18.338Z,63.43
2024-05-09T05:57:59.818Z,64.81
2024-05-09T05:59:41.339Z,64.56
2024-05-09T06:01:22.909Z,64.26
2024-05-09T06:03:04.653Z,63.88
2024-05-09T06:04:46.454Z,63.21
2024-05-09T06:06:27.954Z,63.39
2024-05-09T06:08:09.599Z,63.20
2024-05-09T06:09:51.169Z,63.26
2024-05-09T06:11:32.772Z,64.59
2024-05-09T06:13:14.607Z,63.32
2024-05-09T06:14:56.159Z,64.68
2024-05-09T06:16:37.719Z,63.69
2024-05-09T06:18:19.665Z,63.27
2024-05-09T06:20:01.373Z,63.42
2024-05-09T06:21:42.901Z,63.08
2024-05-09T06:23:24.457Z,62.79
2024-05-09T06:25:05.990Z,63.54
2024-05-09T06:26:47.520Z,64.00
2024-05-09T06:28:29.012Z,63.57
2024-05-09T06:30:21.091Z,62.88
2024-05-09T06:32:07.660Z,64.74
2024-05-09T06:33:49.217Z,63.35
2024-05-09T06:35:31.119Z,65.22
2024-05-09T06:37:12.722Z,66.23
2024-05-09T06:38:54.164Z,65.39
2024-05-09T06:40:38.392Z,66.38
2024-05-09T06:42:21.545Z,66.56
2024-05-09T06:44:03.044Z,65.61
2024-05-09T06:45:44.612Z,65.72
2024-05-09T06:47:26.212Z,65.96
2024-05-09T06:49:07.957Z,65.12
2024-05-09T06:50:49.659Z,64.75
2024-05-09T06:52:31.364Z,66.26
2024-05-09T06:54:12.819Z,65.81
2024-05-09T06:55:54.349Z,65.63
2024-05-09T06:57:36.703Z,65.04
2024-05-09T06:59:19.271Z,65.83
2024-05-09T07:01:00.858Z,66.29
2024-05-09T07:02:42.581Z,66.55
2024-05-09T07:04:24.304Z,65.61
2024-05-09T07:06:06.000Z,66.41
2024-05-09T07:07:47.589Z,65.62
2024-05-09T07:09:29.086Z,64.78
2024-05-09T07:11:10.692Z,63.63
2024-05-09T07:12:52.190Z,64.63
2024-05-09T07:14:36.037Z,64.06
2024-05-09T07:16:18.327Z,65.25
2024-05-09T07:17:59.874Z,63.17
2024-05-09T07:19:41.515Z,65.34
2024-05-09T07:21:23.051Z,61.96
2024-05-09T07:23:04.666Z,63.53
2024-05-09T07:24:46.231Z,60.98
2024-05-09T07:26:27.839Z,59.68
2024-05-09T07:28:09.348Z,59.58
2024-05-09T07:29:50.816Z,57.73
2024-05-09T07:31:32.270Z,58.07
2024-05-09T07:33:13.880Z,59.50
2024-05-09T07:34:55.442Z,58.85
2024-05-09T07:36:36.944Z,55.03
2024-05-09T07:38:18.514Z,55.09
2024-05-09T07:40:00.244Z,57.31
2024-05-09T07:41:41.742Z,52.97
2024-05-09T07:43:23.203Z,55.56
2024-05-09T07:45:21.453Z,51.66
2024-05-09T07:48:14.434Z,50.69
2024-05-09T07:53:33.468Z,46.49
2024-05-09T07:54:37.846Z,46.66
2024-05-09T07:56:21.849Z,46.81
2024-05-09T07:58:04.885Z,46.35
2024-05-09T07:59:46.396Z,46.88
2024-05-09T08:01:28.023Z,46.89
2024-05-09T08:03:09.732Z,44.54
2024-05-09T08:04:51.289Z,43.63
2024-05-09T08:06:32.791Z,41.58
2024-05-09T08:08:14.286Z,47.15
2024-05-09T08:09:55.773Z,46.53
2024-05-09T08:11:37.264Z,48.43
2024-05-09T08:13:18.976Z,50.53
2024-05-09T08:15:00.508Z,52.35
2024-05-09T08:16:41.950Z,51.47
2024-05-09T08:18:23.551Z,52.48
2024-05-09T08:20:05.724Z,52.16
2024-05-09T08:21:47.340Z,54.58
2024-05-09T08:23:28.941Z,51.06
2024-05-09T08:25:13.551Z,52.01
2024-05-09T08:26:55.476Z,49.32
2024-05-09T08:28:36.926Z,48.80
2024-05-09T08:30:24.881Z,46.33
2024-05-09T08:32:11.357Z,45.56
2024-05-09T08:33:53.104Z,44.88
2024-05-09T08:35:34.970Z,42.55
2024-05-09T08:37:22.343Z,42.22
2024-05-09T08:39:06.153Z,40.91
2024-05-09T08:40:47.657Z,39.51
2024-05-09T08:42:29.526Z,42.71
2024-05-09T08:44:10.987Z,37.94
2024-05-09T08:45:52.501Z,39.17
2024-05-09T08:47:34.149Z,38.61
2024-05-09T08:49:15.911Z,37.54
2024-05-09T08:50:57.451Z,38.19
2024-05-09T08:52:38.902Z,38.20
2024-05-09T08:54:20.362Z,44.53
2024-05-09T08:56:01.888Z,41.32
2024-05-09T08:57:43.373Z,39.42
2024-05-09T08:59:24.851Z,40.16
2024-05-09T09:01:06.393Z,38.10
2024-05-09T09:02:47.954Z,37.68
2024-05-09T09:04:29.500Z,36.79
2024-05-09T09:06:11.057Z,34.95
2024-05-09T09:07:52.578Z,40.29
2024-05-09T09:09:34.082Z,42.95
2024-05-09T09:11:15.615Z,44.01
2024-05-09T09:12:57.142Z,44.57
2024-05-09T09:14:38.623Z,43.98
2024-05-09T09:16:20.244Z,44.98
2024-05-09T09:18:01.961Z,42.27
2024-05-09T09:19:43.649Z,42.50
2024-05-09T09:21:25.152Z,41.69
2024-05-09T09:23:06.609Z,43.97
2024-05-09T09:24:48.154Z,43.16
2024-05-09T09:26:29.631Z,43.94
2024-05-09T09:28:11.258Z,43.88
2024-05-09T09:29:52.803Z,44.03
2024-05-09T09:31:34.456Z,43.49
2024-05-09T09:33:16.050Z,41.17
2024-05-09T09:34:57.607Z,42.39
2024-05-09T09:36:39.189Z,44.83
2024-05-09T09:38:20.695Z,42.30
2024-05-09T09:40:02.223Z,40.96
2024-05-09T09:41:43.729Z,40.89
2024-05-09T09:43:25.254Z,38.92
2024-05-09T09:45:06.732Z,40.27
2024-05-09T09:46:48.278Z,39.13
2024-05-09T09:48:29.947Z,39.25
2024-05-09T09:50:14.567Z,40.34
2024-05-09T09:51:58.574Z,37.22
2024-05-09T09:53:40.136Z,40.33
2024-05-09T09:55:21.676Z,45.52
2024-05-09T09:57:03.241Z,43.84
2024-05-09T09:58:44.699Z,44.48
2024-05-09T10:00:30.604Z,42.51
2024-05-09T10:02:14.794Z,43.09
2024-05-09T10:03:56.390Z,43.51
2024-05-09T10:05:39.331Z,42.34
2024-05-09T10:07:21.980Z,40.84
2024-05-09T10:09:03.487Z,40.14
2024-05-09T10:10:45.042Z,38.19
2024-05-09T10:12:26.606Z,34.93
2024-05-09T10:14:08.106Z,36.57
2024-05-09T10:15:49.611Z,34.83
2024-05-09T10:17:31.170Z,34.89
2024-05-09T10:19:12.718Z,37.55
2024-05-09T10:20:54.223Z,39.84
2024-05-09T10:22:35.697Z,36.71
2024-05-09T10:24:17.171Z,37.92
2024-05-09T10:25:58.632Z,39.15
2024-05-09T10:27:40.142Z,39.18
2024-05-09T10:29:21.666Z,40.22
2024-05-09T10:31:03.180Z,38.52
2024-05-09T10:32:44.862Z,38.50
2024-05-09T10:34:26.699Z,38.98
2024-05-09T10:36:08.331Z,39.30
2024-05-09T10:37:49.785Z,39.44
2024-05-09T10:39:31.299Z,38.13
2024-05-09T10:41:12.818Z,38.38
2024-05-09T10:42:54.366Z,38.80
2024-05-09T10:44:35.878Z,38.20
2024-05-09T10:46:17.411Z,38.53
2024-05-09T10:47:59.008Z,39.45
2024-05-09T10:49:40.643Z,39.36
2024-05-09T10:51:22.136Z,39.36
2024-05-09T10:53:03.612Z,37.08
2024-05-09T10:54:45.096Z,39.29
2024-05-09T10:56:26.566Z,36.93
2024-05-09T10:58:08.015Z,35.04
2024-05-09T10:59:49.475Z,31.56
2024-05-09T11:01:31.022Z,30.25
2024-05-09T11:03:12.556Z,31.98
2024-05-09T11:04:54.222Z,41.00
2024-05-09T11:06:35.832Z,39.56
2024-05-09T11:08:17.286Z,38.03
2024-05-09T11:09:58.975Z,38.82
2024-05-09T11:11:40.504Z,39.01
2024-05-09T11:13:22.074Z,37.07
2024-05-09T11:15:03.546Z,35.40
2024-05-09T11:16:45.002Z,34.88
2024-05-09T11:18:28.115Z,36.15
2024-05-09T11:20:17.067Z,34.86
2024-05-09T11:22:04.621Z,32.61
2024-05-09T11:23:46.122Z,35.55
2024-05-09T11:25:27.594Z,34.91
2024-05-09T11:27:09.074Z,34.59
2024-05-09T11:28:51.035Z,34.48
2024-05-09T11:30:32.805Z,33.18
2024-05-09T11:32:14.386Z,35.14
2024-05-09T11:33:55.980Z,35.26
2024-05-09T11:35:37.477Z,34.84
2024-05-09T11:37:19.183Z,33.39
2024-05-09T11:39:00.767Z,35.91
2024-05-09T11:40:42.421Z,34.90
2024-05-09T11:42:24.040Z,36.05
2024-05-09T11:44:05.490Z,34.41
2024-05-09T11:45:46.985Z,35.95
2024-05-09T11:47:28.632Z,35.83
2024-05-09T11:49:10.326Z,36.65
2024-05-09T11:50:51.857Z,35.84
2024-05-09T11:52:33.313Z,36.30
2024-05-09T11:54:14.791Z,38.13
2024-05-09T11:55:56.251Z,37.40
2024-05-09T11:57:37.757Z,37.83
2024-05-09T11:59:19.241Z,37.11
2024-05-09T12:01:00.795Z,37.59
2024-05-09T12:02:42.311Z,37.56
2024-05-09T12:04:24.090Z,39.13
2024-05-09T12:06:05.834Z,37.29
2024-05-09T12:07:47.473Z,36.88
2024-05-09T12:09:29.022Z,36.83
2024-05-09T12:11:10.614Z,35.75
2024-05-09T12:12:52.241Z,35.33
2024-05-09T12:14:33.748Z,36.01
2024-05-09T12:16:15.284Z,34.70
2024-05-09T12:17:58.997Z,35.46
2024-05-09T12:19:42.773Z,35.66
2024-05-09T12:21:24.276Z,34.97
2024-05-09T12:23:05.785Z,33.37
2024-05-09T12:24:47.284Z,34.43
2024-05-09T12:26:28.930Z,33.85
2024-05-09T12:28:10.644Z,33.75
2024-05-09T12:29:52.159Z,33.32
2024-05-09T12:31:33.638Z,33.98
2024-05-09T12:33:15.214Z,35.18
2024-05-09T12:34:56.746Z,34.39
2024-05-09T12:36:38.269Z,34.50
2024-05-09T12:38:19.747Z,34.00
2024-05-09T12:40:01.230Z,33.92
2024-05-09T12:41:42.740Z,33.86
2024-05-09T12:43:24.233Z,35.72
2024-05-09T12:45:05.812Z,36.16
2024-05-09T12:46:47.299Z,35.92
2024-05-09T12:48:28.937Z,35.64
2024-05-09T12:50:21.762Z,35.67
2024-05-09T12:52:06.790Z,33.92
2024-05-09T12:53:48.293Z,34.73
2024-05-09T12:55:34.008Z,37.99
2024-05-09T12:57:22.190Z,37.44
2024-05-09T12:59:03.671Z,38.14
2024-05-09T13:00:45.496Z,40.49
2024-05-09T13:02:27.493Z,40.08
2024-05-09T13:04:09.305Z,40.52
2024-05-09T13:05:51.023Z,41.65
2024-05-09T13:07:32.526Z,41.47
2024-05-09T13:09:14.430Z,41.75
2024-05-09T13:10:56.256Z,40.57
2024-05-09T13:12:37.755Z,39.76
2024-05-09T13:14:19.279Z,40.26
2024-05-09T13:16:00.835Z,40.30
2024-05-09T13:17:42.440Z,39.30
2024-05-09T13:19:24.122Z,38.88
2024-05-09T13:21:05.645Z,38.79
2024-05-09T13:22:47.124Z,38.40
2024-05-09T13:24:28.629Z,37.24
2024-05-09T13:26:10.127Z,38.42
2024-05-09T13:27:51.663Z,36.82
2024-05-09T13:29:33.173Z,36.12
2024-05-09T13:31:14.740Z,37.83
2024-05-09T13:32:56.329Z,39.15
2024-05-09T13:34:38.003Z,40.17
2024-05-09T13:36:19.503Z,37.37
2024-05-09T13:38:01.012Z,38.78
2024-05-09T13:39:42.467Z,38.76
2024-05-09T13:41:23.941Z,39.50
2024-05-09T13:43:05.606Z,38.35
2024-05-09T13:44:47.232Z,39.53
2024-05-09T13:46:28.792Z,38.99
2024-05-09T13:48:10.638Z,38.77
2024-05-09T13:49:52.318Z,38.65
2024-05-09T13:51:34.021Z,38.54
2024-05-09T13:53:15.543Z,38.23
2024-05-09T13:54:57.153Z,38.48
2024-05-09T13:56:38.849Z,39.28
2024-05-09T13:58:20.659Z,38.05
2024-05-09T14:00:03.632Z,38.85
2024-05-09T14:01:45.361Z,38.19
2024-05-09T14:03:27.161Z,38.10
2024-05-09T14:05:08.863Z,37.59
2024-05-09T14:06:50.508Z,39.09
2024-05-09T14:08:31.994Z,38.59
2024-05-09T14:10:22.622Z,38.89
2024-05-09T14:12:09.725Z,38.42
2024-05-09T14:13:52.847Z,38.95
2024-05-09T14:15:34.382Z,38.81
2024-05-09T14:17:16.059Z,38.18
2024-05-09T14:18:57.643Z,39.66
2024-05-09T14:20:39.193Z,40.34
2024-05-09T14:22:21.875Z,39.59
2024-05-09T14:24:03.474Z,39.03
2024-05-09T14:25:46.579Z,37.59
2024-05-09T14:27:29.773Z,36.70
2024-05-09T14:29:11.376Z,37.11
2024-05-09T14:30:52.944Z,37.33
2024-05-09T14:32:34.565Z,36.79
2024-05-09T14:34:16.295Z,36.49
2024-05-09T14:35:57.990Z,37.02
2024-05-09T14:37:39.880Z,35.99
2024-05-09T14:39:21.388Z,37.18
2024-05-09T14:41:02.894Z,37.57
2024-05-09T14:42:44.406Z,36.42
2024-05-09T14:44:25.895Z,36.70
2024-05-09T14:46:07.525Z,35.63
2024-05-09T14:47:49.189Z,36.17
2024-05-09T14:49:30.987Z,36.40
2024-05-09T14:51:12.844Z,35.73
2024-05-09T14:52:54.468Z,35.43
2024-05-09T14:54:36.114Z,35.77
2024-05-09T14:56:17.635Z,35.44
2024-05-09T14:57:59.161Z,34.30
2024-05-09T14:59:40.784Z,34.85
2024-05-09T15:01:22.376Z,34.01
2024-05-09T15:03:04.012Z,35.71
2024-05-09T15:04:45.748Z,33.55
2024-05-09T15:06:27.326Z,35.71
2024-05-09T15:08:08.855Z,35.28
2024-05-09T15:09:50.407Z,35.02
2024-05-09T15:11:31.995Z,34.98
2024-05-09T15:13:16.250Z,34.64
2024-05-09T15:14:58.421Z,34.56
2024-05-09T15:16:39.944Z,34.73
2024-05-09T15:18:21.619Z,33.38
2024-05-09T15:20:05.912Z,34.13
2024-05-09T15:21:50.593Z,34.39
2024-05-09T15:23:32.152Z,34.34
2024-05-09T15:25:13.816Z,33.38
2024-05-09T15:26:55.435Z,33.57
2024-05-09T15:28:36.906Z,34.24
2024-05-09T15:30:24.013Z,33.27
2024-05-09T15:32:09.828Z,34.28
2024-05-09T15:33:51.516Z,34.21
2024-05-09T15:35:33.124Z,33.50
2024-05-09T15:37:14.733Z,33.46
2024-05-09T15:38:56.275Z,34.24
2024-05-09T15:40:40.346Z,33.38
2024-05-09T15:42:22.619Z,33.88
2024-05-09T15:44:04.106Z,33.20
2024-05-09T15:45:45.652Z,33.17
2024-05-09T15:47:27.189Z,33.29
2024-05-09T15:49:09.052Z,33.71
2024-05-09T15:50:50.721Z,34.49
2024-05-09T15:52:32.344Z,32.44
2024-05-09T15:54:13.865Z,34.76
2024-05-09T15:55:55.411Z,35.19
2024-05-09T15:57:36.908Z,36.56
2024-05-09T15:59:18.383Z,37.95
2024-05-09T16:00:59.927Z,38.77
2024-05-09T16:02:41.551Z,38.89
2024-05-09T16:04:23.286Z,39.47
2024-05-09T16:06:04.944Z,40.36
2024-05-09T16:07:46.492Z,40.09
2024-05-09T16:09:27.962Z,40.47
2024-05-09T16:11:09.545Z,39.11
2024-05-09T16:12:51.130Z,37.12
2024-05-09T16:14:32.610Z,37.56
2024-05-09T16:16:14.092Z,39.67
2024-05-09T16:17:56.095Z,39.53
2024-05-09T16:19:37.671Z,40.00
2024-05-09T16:21:19.154Z,39.56
2024-05-09T16:23:00.598Z,38.67
2024-05-09T16:24:42.128Z,38.25
2024-05-09T16:26:23.626Z,39.91
2024-05-09T16:28:08.659Z,38.74
2024-05-09T16:29:52.065Z,38.91
2024-05-09T16:31:33.625Z,38.46
2024-05-09T16:33:15.259Z,37.70
2024-05-09T16:34:56.835Z,38.36
2024-05-09T16:36:38.357Z,38.56
2024-05-09T16:38:19.853Z,38.60
2024-05-09T16:40:01.377Z,37.75
2024-05-09T16:41:42.870Z,38.16
2024-05-09T16:43:24.492Z,37.19
2024-05-09T16:45:06.641Z,37.26
2024-05-09T16:46:48.443Z,37.43
2024-05-09T16:48:30.239Z,36.79
2024-05-09T16:50:15.793Z,36.66
2024-05-09T16:52:00.622Z,37.41
2024-05-09T16:53:42.194Z,37.28
2024-05-09T16:55:23.941Z,37.42
2024-05-09T16:57:05.529Z,36.75
2024-05-09T16:58:46.982Z,37.12
2024-05-09T17:00:38.281Z,37.37
2024-05-09T17:02:23.881Z,36.81
2024-05-09T17:04:05.675Z,37.28
2024-05-09T17:05:47.949Z,37.25
2024-05-09T17:07:29.710Z,37.49
2024-05-09T17:09:12.075Z,36.92
2024-05-09T17:10:57.215Z,36.20
2024-05-09T17:12:38.806Z,37.56
2024-05-09T17:14:20.289Z,38.57
2024-05-09T17:16:01.860Z,39.50
2024-05-09T17:17:43.455Z,39.72
2024-05-09T17:19:24.990Z,40.04
2024-05-09T17:21:06.513Z,39.75
2024-05-09T17:22:47.989Z,38.93
2024-05-09T17:24:29.500Z,38.85
2024-05-09T17:26:10.985Z,39.06
2024-05-09T17:27:52.568Z,38.51
2024-05-09T17:29:34.052Z,37.42
2024-05-09T17:31:15.552Z,37.19
2024-05-09T17:32:57.135Z,38.26
2024-05-09T17:34:38.858Z,38.41
2024-05-09T17:36:20.371Z,38.47
2024-05-09T17:38:01.947Z,38.86
2024-05-09T17:39:43.575Z,38.74
2024-05-09T17:41:25.073Z,39.67
2024-05-09T17:43:08.351Z,39.58
2024-05-09T17:44:51.398Z,39.09
2024-05-09T17:46:32.971Z,38.80
2024-05-09T17:48:14.713Z,39.21
2024-05-09T17:49:56.422Z,40.40
2024-05-09T17:51:38.059Z,40.39
2024-05-09T17:53:19.558Z,40.13
2024-05-09T17:55:01.184Z,40.49
2024-05-09T17:56:42.769Z,39.47
2024-05-09T17:58:24.509Z,40.70
2024-05-09T18:00:11.137Z,40.65
2024-05-09T18:01:53.254Z,40.98
2024-05-09T18:03:34.944Z,41.01
2024-05-09T18:05:16.612Z,40.21
2024-05-09T18:06:58.231Z,39.97
2024-05-09T18:08:39.718Z,39.87
2024-05-09T18:10:26.057Z,39.96
2024-05-09T18:12:14.412Z,40.26
2024-05-09T18:13:55.864Z,40.43
2024-05-09T18:15:37.746Z,41.13
2024-05-09T18:17:20.611Z,41.84
2024-05-09T18:19:03.447Z,41.94
2024-05-09T18:20:46.225Z,41.94
2024-05-09T18:22:28.257Z,42.46
2024-05-09T18:24:09.740Z,42.33
2024-05-09T18:25:51.204Z,42.47
2024-05-09T18:27:32.719Z,42.47
2024-05-09T18:29:14.184Z,42.26
2024-05-09T18:30:55.762Z,43.75
2024-05-09T18:32:37.382Z,44.44
2024-05-09T18:34:19.090Z,43.98
2024-05-09T18:36:00.705Z,43.47
2024-05-09T18:37:42.160Z,43.55
2024-05-09T18:39:23.627Z,43.76
2024-05-09T18:41:05.206Z,43.67
2024-05-09T18:42:46.742Z,43.82
2024-05-09T18:44:28.221Z,44.41
2024-05-09T18:46:09.785Z,44.28
2024-05-09T18:47:51.341Z,44.30
2024-05-09T18:49:32.938Z,44.14
2024-05-09T18:51:14.463Z,44.22
2024-05-09T18:52:55.897Z,46.09
2024-05-09T18:54:37.370Z,45.99
2024-05-09T18:56:18.863Z,45.86
2024-05-09T18:58:00.576Z,45.68
2024-05-09T18:59:42.129Z,45.76
2024-05-09T19:01:23.630Z,45.34
2024-05-09T19:03:06.109Z,46.41
2024-05-09T19:04:48.237Z,45.57
2024-05-09T19:06:30.910Z,46.36
2024-05-09T19:08:12.487Z,46.11
2024-05-09T19:09:54.006Z,45.57
2024-05-09T19:11:35.656Z,45.46
2024-05-09T19:13:17.196Z,46.11
2024-05-09T19:14:58.687Z,46.11
2024-05-09T19:16:40.177Z,46.28
2024-05-09T19:18:21.754Z,46.36
2024-05-09T19:20:04.542Z,46.66
2024-05-09T19:21:47.140Z,46.60
2024-05-09T19:23:28.972Z,46.78
2024-05-09T19:25:10.788Z,47.17
2024-05-09T19:26:52.334Z,47.82
2024-05-09T19:28:33.891Z,48.25
2024-05-09T19:30:25.071Z,47.28
2024-05-09T19:32:15.367Z,47.47
2024-05-09T19:33:56.898Z,47.35
2024-05-09T19:35:38.426Z,47.34
2024-05-09T19:37:20.050Z,48.02
2024-05-09T19:39:01.515Z,47.57
2024-05-09T19:40:43.136Z,47.36
2024-05-09T19:42:24.710Z,48.17
2024-05-09T19:44:06.231Z,50.83
2024-05-09T19:45:47.778Z,51.30
2024-05-09T19:47:29.440Z,50.30
2024-05-09T19:49:11.250Z,50.64
2024-05-09T19:50:53.344Z,51.19
2024-05-09T19:52:35.104Z,50.42
2024-05-09T19:54:16.681Z,50.56
2024-05-09T19:55:58.160Z,50.47
2024-05-09T19:57:39.815Z,50.44
2024-05-09T19:59:21.311Z,50.43
2024-05-09T20:01:02.852Z,51.05
2024-05-09T20:02:44.559Z,50.82
2024-05-09T20:04:26.316Z,50.65
2024-05-09T20:06:07.867Z,50.49
2024-05-09T20:07:49.328Z,50.49
2024-05-09T20:09:30.783Z,50.87
2024-05-09T20:11:12.335Z,50.21
2024-05-09T20:12:53.917Z,51.12
2024-05-09T20:14:35.405Z,51.25
2024-05-09T20:16:17.023Z,51.48
2024-05-09T20:17:58.848Z,51.73
2024-05-09T20:19:40.717Z,52.22
2024-05-09T20:21:22.231Z,51.38
2024-05-09T20:23:03.703Z,52.46
2024-05-09T20:24:45.228Z,52.51
2024-05-09T20:26:28.108Z,54.08
2024-05-09T20:28:11.516Z,55.24
2024-05-09T20:29:53.078Z,55.09
2024-05-09T20:31:34.538Z,54.09
2024-05-09T20:33:16.050Z,53.81
2024-05-09T20:34:57.520Z,53.81
2024-05-09T20:36:39.014Z,54.41
2024-05-09T20:38:20.495Z,53.76
2024-05-09T20:40:01.997Z,52.97
2024-05-09T20:41:43.480Z,52.13
2024-05-09T20:43:25.235Z,51.70
2024-05-09T20:45:06.806Z,52.46
2024-05-09T20:46:48.248Z,52.16
2024-05-09T20:48:29.764Z,52.09
2024-05-09T20:50:20.368Z,51.29
2024-05-09T20:52:10.007Z,51.88
2024-05-09T20:53:51.501Z,51.77
2024-05-09T20:55:32.979Z,51.64
2024-05-09T20:57:14.438Z,51.42
2024-05-09T20:58:55.886Z,52.00
2024-05-09T21:00:41.069Z,51.88
2024-05-09T21:02:25.803Z,51.72
2024-05-09T21:04:07.570Z,51.51
2024-05-09T21:05:49.262Z,51.45
2024-05-09T21:07:30.810Z,51.64
2024-05-09T21:09:12.351Z,52.27
2024-05-09T21:10:53.984Z,52.13
2024-05-09T21:12:35.645Z,52.28
2024-05-09T21:14:17.193Z,51.72
2024-05-09T21:15:58.834Z,51.68
2024-05-09T21:17:40.387Z,51.45
2024-05-09T21:19:21.970Z,50.54
2024-05-09T21:21:03.501Z,50.17
2024-05-09T21:22:44.949Z,50.74
2024-05-09T21:24:26.392Z,50.81
2024-05-09T21:26:07.890Z,50.62
2024-05-09T21:27:49.378Z,50.24
2024-05-09T21:29:30.863Z,51.73
2024-05-09T21:31:12.481Z,52.14
2024-05-09T21:32:54.110Z,53.26
2024-05-09T21:34:35.694Z,54.98
2024-05-09T21:36:17.211Z,55.05
2024-05-09T21:37:58.700Z,53.74
2024-05-09T21:39:40.268Z,54.13
2024-05-09T21:41:21.755Z,54.73
2024-05-09T21:43:03.394Z,56.17
2024-05-09T21:44:45.037Z,57.35
2024-05-09T21:46:26.598Z,56.26
2024-05-09T21:48:08.206Z,55.64
2024-05-09T21:49:49.737Z,55.62
2024-05-09T21:51:31.221Z,54.55
2024-05-09T21:53:13.428Z,55.01
2024-05-09T21:54:55.460Z,54.60
2024-05-09T21:56:37.193Z,54.58
2024-05-09T21:58:18.741Z,53.48